Latest Coastal Weather Observations for Shark Bay Airport

IDW60701

Issued at 1:53 am WST Saturday 21 January 2017 (issued every 10 minutes, with the page automatically refreshed every 10 minutes)

About coastal observations | Map of coastal stations | Coastal observations for WA | Marine services | Other Formats
Station Details ID: 006105 Name: SHARK BAY AIRPORT Lat: -25.89 Lon: 113.58 Height: 33.8 m
Data from the previous 72 hours. | See also: Recent months at Shark Bay Airport
Date/Time
WST
Temp
°C
Wind Pressure Rain since
9am
mm
Weather Cloud Vis
km
Sea
Height
m
Swell
Dir  Spd
kts
Gust
kts
hPa Trend Height
m
Period
s
Dir
21/01:30am 20.7 SSW 11 16 1005.7 - 0.0 - - - - - - -
21/01:00am 20.7 SSW 12 15 1005.9 - 0.0 - - - - - - -
21/12:30am 20.8 SSW 10 14 1006.3 - 0.0 - - - - - - -
21/12:00am 21.0 SSW 12 19 1006.4 - 0.0 - - - - - - -
 
Date/Time
WST
Temp
°C
Wind Pressure Rain since
9am
mm
Weather Cloud Vis
km
Sea
Height
m
Swell
Dir  Spd
kts
Gust
kts
hPa Trend Height
m
Period
s
Dir
20/11:30pm 21.0 SSW 10 15 1006.7 - 0.0 - - - - - - -
20/11:00pm 21.0 SSW 10 15 1006.9 - 0.0 - - - - - - -
20/10:30pm 21.2 SSW 11 16 1007.1 - 0.0 - - - - - - -
20/10:00pm 21.4 SSW 11 16 1007.1 - 0.0 - - - - - - -
20/09:30pm 21.7 S 11 16 1007.1 - 0.0 - - - - - - -
20/09:00pm 21.8 SSW 12 17 1007.1 - 0.0 - - - - - - -
20/08:30pm 22.1 SSW 14 21 1006.9 - 0.0 - - - - - - -
20/08:00pm 22.3 SSW 13 19 1006.4 - 0.0 - - - - - - -
20/07:30pm 22.8 SSW 14 21 1005.8 - 0.0 - - - - - - -
20/07:00pm 23.6 SSW 17 22 1005.7 - 0.0 - - - - - - -
20/06:30pm 24.7 SSW 17 24 1005.4 - 0.0 - - - - - - -
20/06:00pm 25.7 SSW 20 26 1004.9 - 0.0 - - - - - - -
20/05:30pm 26.4 SSW 19 25 1004.8 - 0.0 - - - - - - -
20/05:00pm 26.7 SW 16 22 1004.7 - 0.0 - - - - - - -
20/04:30pm 27.2 SW 17 23 1004.9 - 0.0 - - - - - - -
20/04:00pm 27.4 SW 17 23 1005.0 - 0.0 - - - - - - -
20/03:30pm 27.7 SW 19 25 1005.0 - 0.0 - - - - - - -
20/03:00pm 28.7 SW 18 23 1005.2 - 0.0 - - - - - - -
20/02:30pm 29.6 SW 18 23 1005.4 - 0.0 - - - - - - -
20/02:00pm 30.3 WSW 16 20 1005.5 - 0.0 - - - - - - -
20/01:30pm 30.9 SW 14 19 1005.7 - 0.0 - - - - - - -
20/01:00pm 30.3 SW 13 19 1006.0 - 0.0 - - - - - - -
20/12:30pm 30.2 WSW 12 16 1006.2 - 0.0 - - - - - - -
20/12:00pm 29.0 WNW 13 16 1006.5 - 0.0 - - - - - - -
20/11:30am 30.3 SE 8 13 1007.0 - 0.0 - - - - - - -
20/11:00am 29.1 SE 9 13 1007.4 - 0.0 - - - - - - -
20/10:30am 27.6 SE 10 16 1007.7 - 0.0 - - - - - - -
20/10:00am 26.7 SE 12 19 1007.9 - 0.0 - - - - - - -
20/09:30am 25.2 SSE 12 18 1008.0 - 0.0 - - - - - - -
20/09:00am 24.4 SSE 11 16 1008.4 - 0.0 - - - - - - -
20/08:30am 22.6 SSE 15 21 1008.4 - 0.0 - - - - - - -
20/08:00am 21.9 SSE 15 22 1008.6 - 0.0 - - - - - - -
20/07:30am 20.6 SSE 16 22 1008.6 - 0.0 - - - - - - -
20/07:00am 19.7 SSE 13 19 1008.5 - 0.0 - - - - - - -
20/06:30am 18.6 SSE 11 18 1008.4 - 0.0 - - - - - - -
20/06:00am 17.9 SSE 11 16 1008.3 - 0.0 - - - - - - -
20/05:30am 18.0 SSE 13 19 1008.0 - 0.0 - - - - - - -
20/05:00am 18.0 SSE 13 19 1008.1 - 0.0 - - - - - - -
20/04:30am 18.1 SSE 13 18 1007.9 - 0.0 - - - - - - -
20/04:00am 18.2 SSE 13 20 1008.0 - 0.0 - - - - - - -
20/03:30am 18.3 SSE 12 18 1008.0 - 0.0 - - - - - - -
20/03:00am 18.6 SSE 11 16 1007.9 - 0.0 - - - - - - -
20/02:30am 19.0 SSE 13 20 1007.9 - 0.0 - - - - - - -
20/02:00am 19.1 S 14 21 1007.9 - 0.0 - - - - - - -
20/01:30am 19.3 S 15 21 1008.1 - 0.0 - - - - - - -
20/01:00am 19.4 S 15 22 1008.3 - 0.0 - - - - - - -
20/12:30am 19.4 S 16 24 1008.5 - 0.0 - - - - - - -
20/12:23am 19.5 S 16 26 1008.6 - 0.0 - - - - - - -
20/12:00am 19.6 S 17 22 1008.8 - 0.0 - - - - - - -
 
Date/Time
WST
Temp
°C
Wind Pressure Rain since
9am
mm
Weather Cloud Vis
km
Sea
Height
m
Swell
Dir  Spd
kts
Gust
kts
hPa Trend Height
m
Period
s
Dir
19/11:30pm 19.6 S 17 24 1009.2 - 0.0 - - - - - - -
19/11:00pm 19.8 S 17 25 1009.1 - 0.0 - - - - - - -
19/10:30pm 19.9 S 19 27 1009.2 - 0.0 - - - - - - -
19/10:00pm 20.0 S 20 27 1009.0 - 0.0 - - - - - - -
19/09:30pm 20.1 S 20 28 1008.9 - 0.0 - - - - - - -
19/09:00pm 20.1 S 19 31 1008.7 - 0.0 - - - - - - -
19/08:42pm 20.3 S 19 30 1008.6 - 0.0 - - - - - - -
19/08:30pm 20.3 S 19 27 1008.7 - 0.0 - - - - - - -
19/08:00pm 20.4 S 20 27 1008.3 - 0.0 - - - - - - -
19/07:30pm 20.8 S 19 29 1008.0 - 0.0 - - - - - - -
19/07:02pm 21.4 SSW 20 30 1007.9 - 0.0 - - - - - - -
19/07:00pm 21.5 SSW 21 30 1007.9 - 0.0 - - - - - - -
19/06:39pm 22.2 SSW 22 32 1007.6 - 0.0 - - - - - - -
19/06:30pm 22.5 SSW 23 31 1007.5 - 0.0 - - - - - - -
19/06:00pm 23.5 SSW 21 30 1007.3 - 0.0 - - - - - - -
19/05:30pm 23.9 SSW 23 33 1007.2 - 0.0 - - - - - - -
19/05:10pm 24.4 SSW 22 32 1007.3 - 0.0 - - - - - - -
19/05:00pm 24.6 SSW 22 31 1007.3 - 0.0 - - - - - - -
19/04:38pm 25.3 SSW 22 33 1007.5 - 0.0 - - - - - - -
19/04:30pm 25.3 SSW 22 30 1007.6 - 0.0 - - - - - - -
19/04:00pm 26.0 SSW 23 34 1007.8 - 0.0 - - - - - - -
19/03:32pm 25.9 SSW 22 34 1008.0 - 0.0 - - - - - - -
19/03:30pm 26.7 SSW 22 30 1008.0 - 0.0 - - - - - - -
19/03:00pm 26.0 SSW 23 32 1008.2 - 0.0 - - - - - - -
19/02:30pm 26.3 SSW 23 33 1008.4 - 0.0 - - - - - - -
19/02:24pm 26.1 SSW 22 33 1008.5 - 0.0 - - - - - - -
19/02:00pm 27.3 SSW 21 27 1008.8 - 0.0 - - - - - - -
19/01:30pm 26.9 S 20 28 1009.2 - 0.0 - - - - - - -
19/01:00pm 25.8 SSW 21 31 1009.5 - 0.0 - - - - - - -
19/12:30pm 26.3 S 19 26 1009.9 - 0.0 - - - - - - -
19/12:00pm 24.0 S 20 28 1010.1 - 0.0 - - - - - - -
19/11:50am 25.1 S 18 28 1010.2 - 0.0 - - - - - - -
19/11:30am 23.1 S 21 27 1010.4 - 0.0 - - - - - - -
19/11:00am 22.6 S 18 27 1010.7 - 0.0 - - - - - - -
19/10:30am 22.8 S 19 25 1010.8 - 0.0 - - - - - - -
19/10:00am 22.1 S 19 26 1010.8 - 0.0 - - - - - - -
19/09:31am 22.4 S 16 26 1010.8 - 0.0 - - - - - - -
19/09:30am 22.3 S 16 24 1010.8 - 0.0 - - - - - - -
19/09:00am 21.6 S 17 25 1010.7 - 0.0 - - - - - - -
19/08:33am 21.4 S 17 27 1010.6 - 0.0 - - - - - - -
19/08:30am 21.3 S 16 23 1010.6 - 0.0 - - - - - - -
19/08:00am 21.0 S 17 24 1010.5 - 0.0 - - - - - - -
19/07:30am 21.2 S 17 24 1010.3 - 0.0 - - - - - - -
19/07:00am 21.2 S 17 27 1009.9 - 0.0 - - - - - - -
19/06:31am 21.1 SSW 17 27 1009.7 - 0.0 - - - - - - -
19/06:30am 21.0 SSW 18 27 1009.7 - 0.0 - - - - - - -
19/06:00am 20.8 SSW 16 23 1009.4 - 0.0 - - - - - - -
19/05:30am 20.8 SSW 16 24 1009.1 - 0.0 - - - - - - -
19/05:00am 20.9 SSW 17 23 1009.0 - 0.0 - - - - - - -
19/04:30am 21.1 SSW 17 25 1008.7 - 0.0 - - - - - - -
19/04:00am 21.4 SSW 17 25 1008.6 - 0.0 - - - - - - -
19/03:30am 21.6 S 18 25 1008.5 - 0.0 - - - - - - -
19/03:00am 21.5 SSW 17 23 1008.7 - 0.0 - - - - - - -
19/02:30am 21.5 S 15 21 1008.9 - 0.0 - - - - - - -
19/02:00am 21.5 SSW 18 24 1009.1 - 0.0 - - - - - - -
19/01:30am 21.8 SSW 17 23 1009.2 - 0.0 - - - - - - -
19/01:00am 21.7 SSW 17 23 1009.2 - 0.0 - - - - - - -
19/12:30am 21.5 SSW 17 23 1009.5 - 0.0 - - - - - - -
19/12:09am 21.8 SSW 16 26 1009.7 - 0.0 - - - - - - -
19/12:00am 21.8 SSW 15 20 1009.8 - 0.0 - - - - - - -
 
Date/Time
WST
Temp
°C
Wind Pressure Rain since
9am
mm
Weather Cloud Vis
km
Sea
Height
m
Swell
Dir  Spd
kts
Gust
kts
hPa Trend Height
m
Period
s
Dir
18/11:30pm 21.9 SSW 16 23 1010.0 - 0.0 - - - - - - -
18/11:00pm 21.8 SSW 15 19 1010.3 - 0.0 - - - - - - -
18/10:30pm 21.9 SSW 14 20 1010.3 - 0.0 - - - - - - -
18/10:00pm 22.0 SSW 15 24 1010.1 - 0.0 - - - - - - -
18/09:30pm 21.9 SSW 17 26 1009.8 - 0.0 - - - - - - -
18/09:25pm 21.8 SSW 16 26 1009.8 - 0.0 - - - - - - -
18/09:00pm 22.0 SSW 17 23 1009.8 - 0.0 - - - - - - -
18/08:30pm 22.1 SSW 16 26 1009.3 - 0.0 - - - - - - -
18/08:29pm 22.2 SSW 15 26 1009.4 - 0.0 - - - - - - -
18/08:00pm 22.1 SW 18 24 1009.0 - 0.0 - - - - - - -
18/07:30pm 22.2 SSW 17 25 1008.7 - 0.0 - - - - - - -
18/07:00pm 22.3 SW 19 26 1008.2 - 0.0 - - - - - - -
18/06:30pm 22.5 SW 19 26 1007.7 - 0.0 - - - - - - -
18/06:00pm 22.9 SW 19 25 1007.0 - 0.0 - - - - - - -
18/05:30pm 23.4 SW 20 27 1006.9 - 0.0 - - - - - - -
18/05:00pm 24.0 SW 19 26 1006.7 - 0.0 - - - - - - -
18/04:30pm 24.4 SW 20 25 1006.7 - 0.0 - - - - - - -
18/04:00pm 24.8 SW 19 27 1006.9 - 0.0 - - - - - - -
18/03:30pm 25.4 SW 18 23 1007.2 - 0.0 - - - - - - -
18/03:00pm 25.8 SW 19 25 1007.4 - 0.0 - - - - - - -
18/02:30pm 26.0 SW 20 26 1007.5 - 0.0 - - - - - - -
18/02:00pm 26.6 SW 19 25 1007.7 - 0.0 - - - - - - -
18/01:30pm 27.5 SW 18 25 1007.8 - 0.0 - - - - - - -
18/01:00pm 26.9 SW 19 25 1007.9 - 0.0 - - - - - - -
18/12:30pm 26.0 SW 20 27 1008.0 - 0.0 - - - - - - -
18/12:00pm 26.9 SW 19 25 1008.1 - 0.0 - - - - - - -
18/11:52am 26.5 SW 17 27 1008.1 - 0.0 - - - - - - -
18/11:30am 26.4 SW 18 23 1008.3 - 0.0 - - - - - - -
18/11:00am 26.2 SW 17 24 1008.2 - 0.0 - - - - - - -
18/10:30am 26.1 SW 17 23 1008.3 - 0.0 - - - - - - -
18/10:00am 25.8 SW 15 21 1008.3 - 0.0 - - - - - - -
18/09:30am 25.5 SW 15 23 1008.3 - 0.0 - - - - - - -
18/09:00am 24.6 SW 15 22 1008.0 - 0.0 - - - - - - -
18/08:30am 24.1 SW 16 20 1008.0 - 0.0 - - - - - - -
18/08:00am 23.0 SW 13 18 1008.1 - 0.0 - - - - - - -
18/07:30am 22.6 SSW 13 17 1008.0 - 0.0 - - - - - - -
18/07:00am 22.1 SW 13 18 1007.9 - 0.0 - - - - - - -
18/06:30am 21.8 SW 13 17 1007.6 - 0.0 - - - - - - -
18/06:00am 21.5 SW 12 18 1007.3 - 0.0 - - - - - - -
18/05:30am 21.4 SW 12 18 1006.8 - 0.0 - - - - - - -
18/05:00am 21.3 SW 10 14 1006.5 - 0.0 - - - - - - -
18/04:30am 21.4 SW 13 17 1006.4 - 0.0 - - - - - - -
18/04:00am 21.5 SW 14 19 1006.3 - 0.0 - - - - - - -
18/03:30am 21.4 SW 12 18 1006.1 - 0.0 - - - - - - -
18/03:00am 21.4 SW 13 19 1005.9 - 0.0 - - - - - - -
18/02:30am 21.3 SW 13 19 1006.0 - 0.0 - - - - - - -
18/02:00am 21.4 SW 13 18 1006.0 - 0.0 - - - - - - -

Other Formats:

Comma delimited format used in spreadsheet applications
http://www.bom.gov.au/fwo/IDW60701/IDW60701.95402.axf

JavaScript Object Notation format (JSON) in row-major order
http://www.bom.gov.au/fwo/IDW60701/IDW60701.95402.json